map of QCY home
QCY - Airport
Location
City:  Coningsby, Lincolnshire, England, United Kingdom
Name:RAF Coningsby
ICAO:EGXC
IATA:QCY

Details
Type:Airport (Aerodrome, Airfield)
Use:Military
Latitude:5305'35"N (53.093014)
Longitude:009'58"W (-0.166013)
Datum:WGS 1984
Elevation:25 ft (8 m)
Variation:0.32W (WMM2015v2 magnetic declination)
0.20 annual change
Runways:1
Longest:9003 × 200 ft (2744 × 61 m), paved

Time
Time Zone:UTC+0 (DST+1)
Local Time:

Weather
METAR:EGXC 041350Z 25011KT 9999 FEW020 10/06 Q1014 BLU NOSIG
TAF:EGXC 041341Z 0415/0509 27010KT 9999 SCT030
BECMG 0422/0501 6000 BR PROB40 0501/0509 0300 FZFG VV///

Related Locations
Nearby:
Farthest:NZBA: 11780 mi / 18959 km
Balclutha, OTA, NZ

Find:

   beyond  
but within

Other Information
Maps:
NOTAMs:
Links:
Sources:

  
  • flag of United Kingdom
  • flag of England
  • flag of Lincolnshire
  • flag of Royal Air Force
  

Airport Diagram

Airport diagram for QCY

Larger airport diagram (OBSOLETE) from NGA

Sectional Chart

Flight Planning
at skyvector.com

Satellite Image

Google Maps Satellite view

 

Copyright © 2004-2019 Karl L. Swartz. All rights reserved.
The Great Circle Mapper name and logo are trademarks of the Great Circle Mapper.
All other trademarks mentioned herein belong to their respective owners.
Please see credits for attibutions and further copyright information.

  Follow gcmap on Facebook Follow gcmap on Twitter GCmap on LinkedIn

hCard Microformat

Geo Microformat